Terminal Aerodrome Forecast
Issued by NWS

Home | Current Version | Previous Version | Text Only | Print | Product List | Glossary On
Versions: 1 2 3 4 5 6 7 8 9 10 11 12 13 14 15 16 17 18 19 20 21 22 23 24
000
FTUS41 KGYX 281226 AAA
TAFHIE
TAF AMD
KHIE 281226Z 2812/2912 33005KT P6SM SCT025 SCT040 OVC080
      TEMPO 2817/2819 4SM -SHSN BR BKN025
     FM281900 34007KT 2SM -SHSN BR OVC015
     FM282100 35006KT 4SM BR OVC015
     FM290000 34004KT 6SM BR OVC035=

USA.gov is the U.S. government's official web portal to all federal, state and local government web resources and services.